Terminal Aerodrome Forecast
Issued by NWS Tuscon, AZ

Home | Current Version | Previous Version | Text Only | Print | Product List | Glossary On
Versions: 1 2 3 4 5 6 7 8 9 10 11 12 13 14 15 16 17
000
FTUS45 KTWC 231120
TAFDUG
TAF
KDUG 231120Z 2312/2412 VRB04KT P6SM OVC070
     FM231600 20006KT P6SM SCT060 BKN120
     FM232200 15009KT P6SM VCSH SCT050 BKN120
     FM240400 14010KT P6SM -SHRA OVC060=

USA.gov is the U.S. government's official web portal to all federal, state and local government web resources and services.